Time;durP1;ratioP1;P1;durP2;ratioP2;P2;SDS_P1;SDS_P2;PMS_P1;PMS_P2;Temp;Humidity;BMP_temperature;BMP_pressure;BME280_temperature;BME280_humidity;BME280_pressure;Samples;Min_cycle;Max_cycle;Signal;HPM_P1;HPM_P2
2023/11/11 00:04:43;;;;;;;2.72;2.28;;;;;;;;;;10241779;28;20035;-62
2023/11/11 00:09:44;;;;;;;2.20;2.00;;;;;;;;;;10247686;28;20507;-64
2023/11/11 00:14:44;;;;;;;6.90;2.35;;;;;;;;;;10251777;28;20061;-62
2023/11/11 00:19:47;;;;;;;3.90;2.40;;;;;;;;;;10243888;28;20031;-61
2023/11/11 00:24:47;;;;;;;2.78;2.05;;;;;;;;;;10250443;28;20098;-62
2023/11/11 00:29:50;;;;;;;3.00;2.00;;;;;;;;;;10248453;28;20031;-63
2023/11/11 00:34:52;;;;;;;3.30;2.42;;;;;;;;;;10263357;28;20086;-61
2023/11/11 00:39:52;;;;;;;3.13;2.08;;;;;;;;;;10262153;28;20050;-62
2023/11/11 00:44:53;;;;;;;2.13;1.92;;;;;;;;;;10247182;28;20035;-64
2023/11/11 00:49:54;;;;;;;2.58;2.28;;;;;;;;;;10247746;28;20114;-64
2023/11/11 00:54:55;;;;;;;5.90;2.15;;;;;;;;;;10246578;28;20031;-63
2023/11/11 00:59:56;;;;;;;5.60;2.40;;;;;;;;;;10247649;28;20189;-64
2023/11/11 01:04:57;;;;;;;5.63;2.20;;;;;;;;;;10247289;28;20116;-63
2023/11/11 01:09:58;;;;;;;3.20;1.95;;;;;;;;;;10246973;28;20027;-63
2023/11/11 01:14:59;;;;;;;4.60;2.50;;;;;;;;;;10248597;28;20090;-64
2023/11/11 01:19:59;;;;;;;4.35;2.10;;;;;;;;;;10251421;28;20512;-64
2023/11/11 01:25:00;;;;;;;5.80;2.53;;;;;;;;;;10247104;28;20027;-64
2023/11/11 01:30:00;;;;;;;2.35;1.73;;;;;;;;;;10245744;28;20079;-65
2023/11/11 01:35:01;;;;;;;3.40;2.17;;;;;;;;;;10248726;28;20028;-62
2023/11/11 01:40:02;;;;;;;6.55;2.15;;;;;;;;;;10245208;28;20035;-62
2023/11/11 01:45:04;;;;;;;4.05;2.35;;;;;;;;;;10243473;28;20031;-63
2023/11/11 01:50:06;;;;;;;3.13;2.00;;;;;;;;;;10246142;28;20125;-63
2023/11/11 01:55:07;;;;;;;2.95;2.10;;;;;;;;;;10248620;28;20110;-63
2023/11/11 02:00:12;;;;;;;2.50;2.05;;;;;;;;;;10250196;28;20055;-61
2023/11/11 02:05:13;;;;;;;3.97;2.00;;;;;;;;;;10246849;28;20040;-62
2023/11/11 02:10:13;;;;;;;2.60;1.98;;;;;;;;;;10246005;28;20023;-61
2023/11/11 02:15:15;;;;;;;2.65;2.17;;;;;;;;;;10247248;28;20027;-61
2023/11/11 02:20:15;;;;;;;2.75;1.83;;;;;;;;;;10237234;28;20041;-61
2023/11/11 02:25:17;;;;;;;2.10;1.90;;;;;;;;;;10249177;29;20039;-61
2023/11/11 02:30:17;;;;;;;2.45;2.08;;;;;;;;;;10245672;28;20097;-61
2023/11/11 02:35:18;;;;;;;2.67;2.20;;;;;;;;;;10246877;28;20042;-61
2023/11/11 02:40:18;;;;;;;2.40;1.77;;;;;;;;;;10242884;28;20571;-62
2023/11/11 02:45:19;;;;;;;2.40;2.20;;;;;;;;;;10236961;29;20043;-64
2023/11/11 02:50:20;;;;;;;3.80;2.30;;;;;;;;;;10241649;28;20043;-61
2023/11/11 02:55:20;;;;;;;4.53;2.25;;;;;;;;;;10247241;28;20053;-64
2023/11/11 03:00:21;;;;;;;3.45;2.10;;;;;;;;;;10246008;29;20030;-61
2023/11/11 03:05:21;;;;;;;2.63;2.00;;;;;;;;;;10241741;28;20031;-64
2023/11/11 03:10:22;;;;;;;3.03;1.85;;;;;;;;;;10239285;28;20502;-64
2023/11/11 03:15:23;;;;;;;2.05;1.95;;;;;;;;;;10243722;28;20395;-63
2023/11/11 03:20:23;;;;;;;3.58;2.10;;;;;;;;;;10242103;28;20119;-64
2023/11/11 03:25:24;;;;;;;2.13;1.70;;;;;;;;;;10237553;28;20034;-63
2023/11/11 03:30:25;;;;;;;2.22;1.90;;;;;;;;;;10250987;28;20027;-64
2023/11/11 03:35:25;;;;;;;1.98;1.88;;;;;;;;;;10246467;28;20263;-64
2023/11/11 03:40:26;;;;;;;2.45;1.85;;;;;;;;;;10259147;28;20039;-63
2023/11/11 03:45:26;;;;;;;2.53;2.08;;;;;;;;;;10244874;28;20034;-63
2023/11/11 03:50:27;;;;;;;2.80;1.95;;;;;;;;;;10244762;28;20097;-63
2023/11/11 03:55:28;;;;;;;3.90;1.95;;;;;;;;;;10245048;28;20035;-63
2023/11/11 04:00:28;;;;;;;2.53;2.20;;;;;;;;;;10245798;28;20499;-63
2023/11/11 04:05:30;;;;;;;3.40;2.20;;;;;;;;;;10256873;28;20034;-63
2023/11/11 04:10:30;;;;;;;2.55;1.67;;;;;;;;;;10252383;28;20031;-61
2023/11/11 04:15:31;;;;;;;3.08;2.00;;;;;;;;;;10256227;28;20430;-60
2023/11/11 04:20:32;;;;;;;2.10;1.90;;;;;;;;;;10256172;28;20487;-60
2023/11/11 04:25:33;;;;;;;2.05;1.88;;;;;;;;;;10255316;28;20027;-62
2023/11/11 04:30:33;;;;;;;2.50;2.10;;;;;;;;;;10250987;28;20094;-63
2023/11/11 04:35:34;;;;;;;2.88;2.15;;;;;;;;;;10255828;28;20046;-62
2023/11/11 04:40:39;;;;;;;2.53;1.85;;;;;;;;;;10254733;28;20047;-63
2023/11/11 04:45:40;;;;;;;2.22;1.95;;;;;;;;;;10259796;28;20032;-63
2023/11/11 04:50:40;;;;;;;2.10;1.88;;;;;;;;;;10255492;28;20055;-62
2023/11/11 04:55:41;;;;;;;2.47;1.88;;;;;;;;;;10256021;28;20047;-63
2023/11/11 05:00:42;;;;;;;2.10;1.90;;;;;;;;;;10248713;28;20082;-63
2023/11/11 05:05:43;;;;;;;2.30;2.10;;;;;;;;;;10256808;28;20035;-61
2023/11/11 05:10:44;;;;;;;2.67;1.80;;;;;;;;;;10255673;28;20027;-62
2023/11/11 05:15:47;;;;;;;1.95;1.80;;;;;;;;;;10250926;28;20034;-62
2023/11/11 05:20:48;;;;;;;2.30;2.10;;;;;;;;;;10247496;28;20030;-62
2023/11/11 05:25:48;;;;;;;2.47;2.10;;;;;;;;;;10255053;28;20027;-62
2023/11/11 05:30:49;;;;;;;1.95;1.80;;;;;;;;;;10248538;28;20030;-62
2023/11/11 05:35:49;;;;;;;3.13;2.03;;;;;;;;;;10246802;28;20038;-62
2023/11/11 05:40:50;;;;;;;2.10;1.90;;;;;;;;;;10249471;28;20275;-62
2023/11/11 05:45:51;;;;;;;2.78;1.58;;;;;;;;;;10246405;28;20030;-56
2023/11/11 05:50:52;;;;;;;6.93;2.05;;;;;;;;;;10246949;28;20039;-61
2023/11/11 05:55:52;;;;;;;2.38;2.17;;;;;;;;;;10241670;28;20023;-61
2023/11/11 06:00:53;;;;;;;2.30;2.10;;;;;;;;;;10247906;28;20042;-62
2023/11/11 06:05:53;;;;;;;2.50;2.15;;;;;;;;;;10246220;28;20034;-62
2023/11/11 06:10:54;;;;;;;3.25;1.75;;;;;;;;;;10249863;28;20023;-62
2023/11/11 06:15:55;;;;;;;2.55;1.77;;;;;;;;;;10245301;28;20041;-63
2023/11/11 06:20:56;;;;;;;6.30;1.90;;;;;;;;;;10247778;28;20488;-63
2023/11/11 06:25:58;;;;;;;2.13;1.92;;;;;;;;;;10246887;28;20078;-63
2023/11/11 06:30:59;;;;;;;1.85;1.73;;;;;;;;;;10246379;28;20031;-63
2023/11/11 06:36:00;;;;;;;2.20;2.00;;;;;;;;;;10247236;28;20031;-63
2023/11/11 06:41:00;;;;;;;1.85;1.75;;;;;;;;;;10247998;28;20039;-63
2023/11/11 06:46:03;;;;;;;3.35;2.00;;;;;;;;;;10245683;29;20046;-62
2023/11/11 06:51:04;;;;;;;2.30;2.10;;;;;;;;;;10246003;28;20479;-63
2023/11/11 06:56:05;;;;;;;9.43;2.03;;;;;;;;;;10247283;28;20031;-65
2023/11/11 07:01:07;;;;;;;10.73;1.80;;;;;;;;;;10239274;28;20126;-63
2023/11/11 07:06:10;;;;;;;4.03;1.92;;;;;;;;;;10243587;28;20035;-62
2023/11/11 07:11:11;;;;;;;3.08;1.98;;;;;;;;;;10240945;28;20028;-63
2023/11/11 07:16:16;;;;;;;2.05;1.90;;;;;;;;;;10235759;29;20046;-60
2023/11/11 07:21:24;;;;;;;7.40;2.55;;;;;;;;;;10245008;28;20121;-61
2023/11/11 07:26:28;;;;;;;2.97;1.85;;;;;;;;;;10246129;28;20452;-62
2023/11/11 07:31:28;;;;;;;3.15;1.85;;;;;;;;;;10241712;29;20027;-62
2023/11/11 07:36:29;;;;;;;2.28;1.90;;;;;;;;;;10243567;28;20419;-61
2023/11/11 07:41:30;;;;;;;12.20;1.50;;;;;;;;;;10240068;28;20038;-62
2023/11/11 07:46:34;;;;;;;6.93;1.95;;;;;;;;;;10244789;28;20031;-60
2023/11/11 07:51:34;;;;;;;2.40;1.85;;;;;;;;;;10244768;28;20118;-60
2023/11/11 07:56:36;;;;;;;5.15;2.80;;;;;;;;;;10241753;28;20074;-56
2023/11/11 08:01:38;;;;;;;2.05;1.85;;;;;;;;;;10238919;28;20051;-60
2023/11/11 08:06:39;;;;;;;2.60;1.52;;;;;;;;;;10242810;29;20491;-60
2023/11/11 08:11:39;;;;;;;9.15;1.80;;;;;;;;;;10241584;28;20043;-60
2023/11/11 08:16:40;;;;;;;5.18;1.95;;;;;;;;;;10246912;28;20514;-58
2023/11/11 08:21:41;;;;;;;5.93;1.83;;;;;;;;;;10242512;28;20078;-59
2023/11/11 08:26:42;;;;;;;4.25;1.80;;;;;;;;;;10244031;28;20079;-59
2023/11/11 08:31:43;;;;;;;5.55;1.95;;;;;;;;;;10241196;28;20499;-61
2023/11/11 08:36:52;;;;;;;10.70;1.75;;;;;;;;;;10243665;28;20387;-56
2023/11/11 08:41:58;;;;;;;;;;;;;;;;;;10237684;28;20028;-64
2023/11/11 08:47:00;;;;;;;9.13;7.03;;;;;;;;;;10243492;28;20028;-62
2023/11/11 08:52:10;;;;;;;10.40;8.30;;;;;;;;;;10250321;29;20529;-64
2023/11/11 08:57:11;;;;;;;8.27;6.55;;;;;;;;;;10249481;28;20073;-63
2023/11/11 09:02:12;;;;;;;8.05;6.65;;;;;;;;;;10247727;29;20035;-63
2023/11/11 09:07:13;;;;;;;10.98;6.88;;;;;;;;;;10246096;28;20039;-62
2023/11/11 09:12:13;;;;;;;8.18;6.45;;;;;;;;;;10250374;28;20086;-62
2023/11/11 09:17:14;;;;;;;11.98;6.95;;;;;;;;;;10252108;28;20038;-62
2023/11/11 09:22:14;;;;;;;12.52;6.90;;;;;;;;;;10250980;28;20065;-63
2023/11/11 09:27:16;;;;;;;11.18;7.00;;;;;;;;;;10245144;28;20034;-62
2023/11/11 09:32:16;;;;;;;10.05;7.05;;;;;;;;;;10250863;28;20030;-56
2023/11/11 09:37:18;;;;;;;10.60;6.20;;;;;;;;;;10245437;28;20682;-56
2023/11/11 09:42:18;;;;;;;7.25;6.10;;;;;;;;;;10249125;28;20517;-63
2023/11/11 09:47:26;;;;;;;8.95;6.40;;;;;;;;;;10249092;29;20027;-61
2023/11/11 09:52:33;;;;;;;8.27;5.72;;;;;;;;;;10248593;28;20043;-60
2023/11/11 09:57:34;;;;;;;14.52;5.75;;;;;;;;;;10245511;28;20047;-60
2023/11/11 10:02:34;;;;;;;8.77;5.63;;;;;;;;;;10246452;28;20046;-60
2023/11/11 10:07:39;;;;;;;11.05;5.93;;;;;;;;;;10248053;29;20035;-61
2023/11/11 10:12:39;;;;;;;8.10;5.30;;;;;;;;;;10235066;29;20050;-61
2023/11/11 10:17:41;;;;;;;8.07;5.20;;;;;;;;;;10247804;28;20042;-61
2023/11/11 10:22:48;;;;;;;7.85;5.10;;;;;;;;;;10247689;28;20035;-60
2023/11/11 10:27:59;;;;;;;7.22;4.97;;;;;;;;;;10247797;28;20027;-61
2023/11/11 10:33:04;;;;;;;8.57;4.82;;;;;;;;;;10246089;28;20031;-60
2023/11/11 10:38:07;;;;;;;5.20;4.22;;;;;;;;;;10245636;28;20042;-61
2023/11/11 10:43:10;;;;;;;10.68;4.53;;;;;;;;;;10246833;28;20027;-61
2023/11/11 10:48:11;;;;;;;9.38;4.97;;;;;;;;;;10257967;28;20035;-62
2023/11/11 10:53:15;;;;;;;6.75;4.40;;;;;;;;;;10247471;28;20046;-60
2023/11/11 10:58:17;;;;;;;7.20;4.95;;;;;;;;;;10248145;28;20057;-61
2023/11/11 11:03:19;;;;;;;13.35;4.50;;;;;;;;;;10249861;28;20041;-61
2023/11/11 11:08:31;;;;;;;9.82;4.72;;;;;;;;;;10263962;28;20035;-59
2023/11/11 11:13:35;;;;;;;11.60;5.03;;;;;;;;;;10247966;28;20556;-62
2023/11/11 11:18:41;;;;;;;8.93;4.15;;;;;;;;;;10254631;28;20032;-60
2023/11/11 11:23:41;;;;;;;7.65;3.95;;;;;;;;;;10247442;28;20097;-61
2023/11/11 11:29:19;;;;;;;10.93;4.85;;;;;;;;;;10264636;28;20078;-61
2023/11/11 11:34:19;;;;;;;8.75;4.57;;;;;;;;;;10254684;28;20379;-61
2023/11/11 11:39:29;;;;;;;13.23;6.15;;;;;;;;;;10240813;28;20045;-61
2023/11/11 11:44:32;;;;;;;15.13;6.75;;;;;;;;;;10250547;28;20472;-62
2023/11/11 11:54:37;;;;;;;13.98;6.38;;;;;;;;;;10242082;28;20082;-62
2023/11/11 11:59:37;;;;;;;12.88;6.30;;;;;;;;;;10244746;28;20106;-62
2023/11/11 12:04:41;;;;;;;12.55;6.35;;;;;;;;;;10235694;28;20035;-62
2023/11/11 12:09:42;;;;;;;13.15;5.93;;;;;;;;;;10243484;28;20151;-63
2023/11/11 12:14:43;;;;;;;11.50;6.18;;;;;;;;;;10221778;28;20058;-62
2023/11/11 12:19:47;;;;;;;17.30;6.38;;;;;;;;;;10236928;29;20435;-62
2023/11/11 12:24:48;;;;;;;14.10;6.05;;;;;;;;;;10234739;28;20534;-62
2023/11/11 12:29:49;;;;;;;15.02;6.22;;;;;;;;;;10228933;28;20039;-62
2023/11/11 12:34:51;;;;;;;11.63;5.45;;;;;;;;;;10238462;28;20079;-62
2023/11/11 12:39:52;;;;;;;12.45;6.00;;;;;;;;;;10241139;28;20040;-62
2023/11/11 12:44:53;;;;;;;14.23;5.93;;;;;;;;;;10239263;28;20059;-63
2023/11/11 12:49:54;;;;;;;12.27;5.13;;;;;;;;;;10245575;28;20023;-62
2023/11/11 12:54:55;;;;;;;12.13;6.10;;;;;;;;;;10252425;28;20027;-62
2023/11/11 12:59:56;;;;;;;15.13;6.32;;;;;;;;;;10247978;29;20340;-62
2023/11/11 13:04:56;;;;;;;18.48;6.40;;;;;;;;;;10251206;28;20031;-62
2023/11/11 13:09:57;;;;;;;9.38;5.20;;;;;;;;;;10260893;28;20043;-62
2023/11/11 13:15:00;;;;;;;17.20;5.82;;;;;;;;;;10251699;28;20128;-62
2023/11/11 13:20:03;;;;;;;9.63;5.18;;;;;;;;;;10251914;28;20443;-62
2023/11/11 13:25:09;;;;;;;11.77;4.82;;;;;;;;;;10254971;28;20046;-62
2023/11/11 13:30:11;;;;;;;8.57;4.75;;;;;;;;;;10257490;28;20034;-62
2023/11/11 13:35:14;;;;;;;9.52;5.00;;;;;;;;;;10229176;28;20061;-64
2023/11/11 13:40:34;;;;;;;11.73;5.20;;;;;;;;;;10240849;28;20039;-63
2023/11/11 13:45:35;;;;;;;11.90;5.00;;;;;;;;;;10236160;28;20047;-63
2023/11/11 13:50:36;;;;;;;9.52;5.03;;;;;;;;;;10241543;28;20051;-63
2023/11/11 13:55:37;;;;;;;8.65;4.68;;;;;;;;;;10240514;28;20023;-63
2023/11/11 14:00:38;;;;;;;9.43;4.80;;;;;;;;;;10246750;28;20462;-63
2023/11/11 14:05:41;;;;;;;12.95;4.45;;;;;;;;;;10242690;28;20126;-63
2023/11/11 14:10:41;;;;;;;9.13;4.18;;;;;;;;;;10243861;28;20074;-63
2023/11/11 14:15:44;;;;;;;9.00;4.82;;;;;;;;;;10243864;28;20031;-63
2023/11/11 14:20:55;;;;;;;12.05;4.35;;;;;;;;;;10242736;28;20399;-63
2023/11/11 14:25:58;;;;;;;8.23;3.95;;;;;;;;;;10240435;28;20035;-63
2023/11/11 14:30:58;;;;;;;7.40;4.28;;;;;;;;;;10241952;28;20480;-63
2023/11/11 14:35:59;;;;;;;6.90;3.95;;;;;;;;;;10245372;28;20395;-63
2023/11/11 14:41:02;;;;;;;12.75;3.88;;;;;;;;;;10238562;28;20039;-63
2023/11/11 14:46:03;;;;;;;9.27;4.40;;;;;;;;;;10236321;28;20039;-63
2023/11/11 14:51:04;;;;;;;8.60;4.25;;;;;;;;;;10236999;28;20050;-63
2023/11/11 14:56:05;;;;;;;11.52;4.00;;;;;;;;;;10246392;28;20027;-63
2023/11/11 15:01:05;;;;;;;12.73;4.13;;;;;;;;;;10243505;29;20043;-63
2023/11/11 15:06:07;;;;;;;8.55;3.85;;;;;;;;;;10239842;28;20027;-63
2023/11/11 15:11:10;;;;;;;7.25;3.97;;;;;;;;;;10235158;28;20106;-63
2023/11/11 15:16:14;;;;;;;6.80;3.85;;;;;;;;;;10242565;28;20491;-63
2023/11/11 15:21:16;;;;;;;15.25;3.63;;;;;;;;;;10243506;28;20038;-62
2023/11/11 15:26:17;;;;;;;7.10;4.38;;;;;;;;;;10246774;28;20020;-63
2023/11/11 15:31:29;;;;;;;6.88;3.85;;;;;;;;;;10233540;28;20031;-63
2023/11/11 15:36:29;;;;;;;5.20;3.35;;;;;;;;;;10229520;29;20027;-63
2023/11/11 15:41:32;;;;;;;9.43;3.80;;;;;;;;;;10229117;28;20035;-62
2023/11/11 15:46:33;;;;;;;8.98;4.13;;;;;;;;;;10220112;28;20043;-63
2023/11/11 15:51:34;;;;;;;5.78;3.60;;;;;;;;;;10223262;28;20062;-63
2023/11/11 15:56:34;;;;;;;6.53;3.28;;;;;;;;;;10214267;28;20235;-63
2023/11/11 16:01:40;;;;;;;7.80;3.90;;;;;;;;;;10227925;28;20039;-62
2023/11/11 16:06:41;;;;;;;6.57;3.90;;;;;;;;;;10227341;28;20571;-62
2023/11/11 16:11:43;;;;;;;6.47;3.75;;;;;;;;;;10222580;28;20040;-62
2023/11/11 16:16:44;;;;;;;7.22;4.03;;;;;;;;;;10221921;28;20118;-62
2023/11/11 16:21:45;;;;;;;8.27;3.55;;;;;;;;;;10233785;28;20102;-62
2023/11/11 16:26:47;;;;;;;5.03;3.22;;;;;;;;;;10227975;28;20603;-63
2023/11/11 16:31:47;;;;;;;7.88;3.90;;;;;;;;;;10235315;28;20031;-63
2023/11/11 16:36:48;;;;;;;4.82;3.50;;;;;;;;;;10210774;28;20040;-62
2023/11/11 16:41:48;;;;;;;7.38;3.22;;;;;;;;;;10222391;28;20047;-63
2023/11/11 16:46:49;;;;;;;7.50;3.50;;;;;;;;;;10221744;28;20106;-63
2023/11/11 16:51:50;;;;;;;5.65;3.17;;;;;;;;;;10212830;28;20075;-63
2023/11/11 16:56:50;;;;;;;5.63;3.22;;;;;;;;;;10223066;28;20042;-62
2023/11/11 17:01:51;;;;;;;5.78;3.60;;;;;;;;;;10229358;28;20042;-63
2023/11/11 17:06:51;;;;;;;7.15;4.10;;;;;;;;;;10233232;28;20035;-64
2023/11/11 17:11:53;;;;;;;5.30;3.50;;;;;;;;;;10244228;28;20098;-64
2023/11/11 17:16:54;;;;;;;4.43;3.47;;;;;;;;;;10235869;28;20027;-63
2023/11/11 17:21:55;;;;;;;4.10;3.28;;;;;;;;;;10233193;28;20063;-63
2023/11/11 17:26:55;;;;;;;7.05;3.60;;;;;;;;;;10212159;28;20555;-63
2023/11/11 17:31:56;;;;;;;5.03;3.28;;;;;;;;;;10231070;28;20031;-62
2023/11/11 17:36:59;;;;;;;4.05;3.72;;;;;;;;;;10261565;28;20486;-64
2023/11/11 17:42:00;;;;;;;6.75;4.18;;;;;;;;;;10243952;28;20086;-63
2023/11/11 17:47:01;;;;;;;4.25;3.72;;;;;;;;;;10256980;28;20034;-63
2023/11/11 17:52:04;;;;;;;5.72;3.50;;;;;;;;;;10253747;28;20047;-63
2023/11/11 17:57:04;;;;;;;5.78;3.55;;;;;;;;;;10260622;28;20093;-63
2023/11/11 18:02:05;;;;;;;7.35;3.75;;;;;;;;;;10242150;28;20094;-63
2023/11/11 18:07:06;;;;;;;6.22;3.92;;;;;;;;;;10240604;28;20079;-62
2023/11/11 18:12:07;;;;;;;6.03;4.18;;;;;;;;;;10243434;28;20039;-63
2023/11/11 18:17:07;;;;;;;6.18;4.05;;;;;;;;;;10236832;28;20057;-62
2023/11/11 18:22:08;;;;;;;8.70;4.10;;;;;;;;;;10249071;28;20106;-63
2023/11/11 18:27:09;;;;;;;5.65;4.13;;;;;;;;;;10250615;28;20050;-62
2023/11/11 18:32:10;;;;;;;12.68;4.95;;;;;;;;;;10244940;28;20055;-62
2023/11/11 18:37:11;;;;;;;7.57;4.53;;;;;;;;;;10243126;28;20471;-63
2023/11/11 18:42:12;;;;;;;9.13;4.30;;;;;;;;;;10231975;28;20035;-64
2023/11/11 18:47:13;;;;;;;5.70;4.70;;;;;;;;;;10253901;28;20598;-64
2023/11/11 18:52:13;;;;;;;17.08;6.70;;;;;;;;;;10246567;28;20142;-63
2023/11/11 18:57:14;;;;;;;21.13;6.55;;;;;;;;;;10245402;28;20038;-63
2023/11/11 19:02:15;;;;;;;13.40;5.47;;;;;;;;;;10249818;28;20034;-63
2023/11/11 19:07:15;;;;;;;17.67;5.90;;;;;;;;;;10243112;28;20028;-63
2023/11/11 19:12:18;;;;;;;12.13;5.85;;;;;;;;;;10243803;29;20046;-63
2023/11/11 19:17:18;;;;;;;11.52;5.72;;;;;;;;;;10240541;28;20029;-63
2023/11/11 19:22:19;;;;;;;12.52;5.78;;;;;;;;;;10240665;28;20027;-63
2023/11/11 19:27:19;;;;;;;12.35;5.82;;;;;;;;;;10244053;28;20023;-63
2023/11/11 19:32:21;;;;;;;10.73;5.45;;;;;;;;;;10221836;28;20034;-63
2023/11/11 19:37:21;;;;;;;13.20;5.63;;;;;;;;;;10248940;28;20019;-63
2023/11/11 19:42:22;;;;;;;9.68;5.75;;;;;;;;;;10245291;28;20039;-63
2023/11/11 19:47:22;;;;;;;9.43;5.78;;;;;;;;;;10244198;28;20031;-63
2023/11/11 19:52:24;;;;;;;10.18;5.72;;;;;;;;;;10232809;28;20484;-63
2023/11/11 19:57:26;;;;;;;9.50;5.63;;;;;;;;;;10253568;28;20119;-63
2023/11/11 20:02:27;;;;;;;12.30;5.72;;;;;;;;;;10245258;28;20447;-62
2023/11/11 20:07:30;;;;;;;9.80;5.53;;;;;;;;;;10255365;28;20020;-62
2023/11/11 20:12:30;;;;;;;10.57;5.70;;;;;;;;;;10251778;28;20109;-63
2023/11/11 20:17:31;;;;;;;9.85;6.03;;;;;;;;;;10234388;28;20023;-63
2023/11/11 20:22:32;;;;;;;7.43;5.55;;;;;;;;;;10230250;28;20027;-63
2023/11/11 20:27:36;;;;;;;8.18;5.70;;;;;;;;;;10243455;28;20043;-63
2023/11/11 20:32:36;;;;;;;7.75;5.00;;;;;;;;;;10232047;28;20026;-62
2023/11/11 20:37:37;;;;;;;8.57;6.22;;;;;;;;;;10233675;28;20135;-62
2023/11/11 20:42:38;;;;;;;11.93;5.72;;;;;;;;;;10242587;28;20031;-63
2023/11/11 20:47:38;;;;;;;9.05;5.40;;;;;;;;;;10250872;28;20031;-63
2023/11/11 20:52:39;;;;;;;9.25;5.47;;;;;;;;;;10250712;28;20055;-62
2023/11/11 20:57:43;;;;;;;9.30;5.43;;;;;;;;;;10237551;28;20106;-63
2023/11/11 21:02:44;;;;;;;9.38;5.72;;;;;;;;;;10238035;28;20530;-62
2023/11/11 21:07:45;;;;;;;9.55;6.28;;;;;;;;;;10238553;28;20024;-63
2023/11/11 21:12:47;;;;;;;8.98;6.28;;;;;;;;;;10236740;28;20451;-63
2023/11/11 21:17:50;;;;;;;9.75;6.15;;;;;;;;;;10249613;28;20444;-63
2023/11/11 21:22:51;;;;;;;9.93;6.03;;;;;;;;;;10236468;28;20485;-63
2023/11/11 21:27:53;;;;;;;8.43;6.10;;;;;;;;;;10258529;28;20031;-63
2023/11/11 21:32:54;;;;;;;9.52;5.75;;;;;;;;;;10230899;28;20110;-63
2023/11/11 21:37:55;;;;;;;8.05;6.13;;;;;;;;;;10236122;28;20038;-63
2023/11/11 21:42:55;;;;;;;7.50;5.57;;;;;;;;;;10235894;28;20038;-63
2023/11/11 21:47:56;;;;;;;8.60;6.25;;;;;;;;;;10237096;28;20031;-63
2023/11/11 21:52:57;;;;;;;8.63;6.38;;;;;;;;;;10247741;28;20047;-63
2023/11/11 21:57:57;;;;;;;10.70;6.30;;;;;;;;;;10235417;28;20071;-63
2023/11/11 22:02:59;;;;;;;7.55;6.68;;;;;;;;;;10247948;28;20032;-63
2023/11/11 22:08:00;;;;;;;8.65;6.63;;;;;;;;;;10247689;28;20114;-63
2023/11/11 22:13:00;;;;;;;8.88;6.80;;;;;;;;;;10248436;28;20546;-63
2023/11/11 22:18:01;;;;;;;10.30;7.50;;;;;;;;;;10247613;28;20487;-63
2023/11/11 22:23:03;;;;;;;8.95;7.30;;;;;;;;;;10247177;28;20478;-63
2023/11/11 22:28:03;;;;;;;10.98;7.30;;;;;;;;;;10236122;28;20032;-63
2023/11/11 22:33:04;;;;;;;11.20;7.50;;;;;;;;;;10245332;28;20550;-63
2023/11/11 22:38:06;;;;;;;9.20;6.78;;;;;;;;;;10246889;28;20480;-62
2023/11/11 22:43:07;;;;;;;9.00;6.80;;;;;;;;;;10246157;28;20027;-62
2023/11/11 22:48:08;;;;;;;7.93;6.55;;;;;;;;;;10246546;28;20027;-62
2023/11/11 22:53:09;;;;;;;8.75;6.60;;;;;;;;;;10233315;28;20070;-62
2023/11/11 22:58:10;;;;;;;10.15;7.72;;;;;;;;;;10246926;28;20046;-63
2023/11/11 23:03:12;;;;;;;7.45;6.35;;;;;;;;;;10245162;28;20042;-62
2023/11/11 23:08:13;;;;;;;7.78;6.32;;;;;;;;;;10243545;28;20039;-62
2023/11/11 23:13:14;;;;;;;9.88;6.78;;;;;;;;;;10235384;28;20126;-62
2023/11/11 23:18:15;;;;;;;8.32;6.82;;;;;;;;;;10244031;28;20426;-62
2023/11/11 23:23:16;;;;;;;8.82;6.75;;;;;;;;;;10258191;28;20149;-62
2023/11/11 23:28:17;;;;;;;8.55;6.30;;;;;;;;;;10256135;28;20042;-62
2023/11/11 23:33:17;;;;;;;8.35;6.60;;;;;;;;;;10235337;28;20379;-63
2023/11/11 23:38:18;;;;;;;7.70;6.25;;;;;;;;;;10255634;28;20424;-62
2023/11/11 23:43:18;;;;;;;7.95;6.30;;;;;;;;;;10225681;28;20448;-63
2023/11/11 23:48:19;;;;;;;7.97;6.57;;;;;;;;;;10239143;28;20101;-63
2023/11/11 23:53:20;;;;;;;6.82;6.13;;;;;;;;;;10248256;28;20068;-62
2023/11/11 23:58:21;;;;;;;7.95;6.55;;;;;;;;;;10250744;28;20035;-63
